Time;durP1;ratioP1;P1;durP2;ratioP2;P2;SDS_P1;SDS_P2;PMS_P1;PMS_P2;Temp;Humidity;BMP_temperature;BMP_pressure;BME280_temperature;BME280_humidity;BME280_pressure;Samples;Min_cycle;Max_cycle;Signal;HPM_P1;HPM_P2
2020/12/30 00:02:23;;;;;;;;;29.50;28.50;;;;;8.95;74.78;101795.63;4435922;32;13084;-74
2020/12/30 00:05:19;;;;;;;;;34.25;33.00;;;;;8.90;75.30;101791.81;4433825;32;12381;-74
2020/12/30 00:07:49;;;;;;;;;32.00;30.50;;;;;8.96;75.20;101789.81;4435164;32;12469;-75
2020/12/30 00:10:45;;;;;;;;;40.00;39.25;;;;;8.97;75.25;101791.47;4433208;32;12478;-74
2020/12/30 00:13:34;;;;;;;;;38.25;34.50;;;;;8.99;75.23;101794.75;4434884;32;12410;-74
2020/12/30 00:16:32;;;;;;;;;34.00;28.75;;;;;9.03;75.28;101787.53;4435819;32;12354;-74
2020/12/30 00:19:27;;;;;;;;;34.75;32.50;;;;;9.13;75.16;101784.66;4434374;32;12327;-74
2020/12/30 00:22:23;;;;;;;;;31.50;31.50;;;;;9.21;74.99;101793.41;4434069;32;12344;-74
2020/12/30 00:24:50;;;;;;;;;38.50;37.00;;;;;9.19;75.20;101788.97;4433087;32;12379;-74
2020/12/30 00:27:32;;;;;;;;;36.50;36.25;;;;;9.23;75.24;101789.22;4433813;32;12413;-74
2020/12/30 00:30:28;;;;;;;;;39.00;35.00;;;;;9.25;75.35;101794.44;4434283;32;12366;-74
2020/12/30 00:33:23;;;;;;;;;34.25;33.75;;;;;9.29;75.12;101788.06;4434270;32;12362;-74
2020/12/30 00:35:51;;;;;;;;;30.25;29.50;;;;;9.33;74.86;101783.56;4434802;32;12331;-74
2020/12/30 00:38:48;;;;;;;;;30.25;30.00;;;;;9.35;75.02;101783.25;4432498;32;12349;-73
2020/12/30 00:41:45;;;;;;;;;31.00;30.50;;;;;9.37;74.89;101786.56;4433803;32;12366;-73
2020/12/30 00:44:42;;;;;;;;;45.75;40.50;;;;;9.29;75.17;101781.72;4434003;32;13081;-73
2020/12/30 00:47:38;;;;;;;;;43.50;40.50;;;;;9.33;75.13;101783.56;4432866;32;13100;-73
2020/12/30 00:50:19;;;;;;;;;22.25;22.25;;;;;9.43;74.72;101779.84;4434922;32;12393;-75
2020/12/30 00:53:14;;;;;;;;;34.50;32.00;;;;;9.30;75.25;101778.66;4434194;32;12332;-74
2020/12/30 00:56:11;;;;;;;;;20.50;15.75;;;;;9.44;74.64;101781.50;4433980;32;12353;-74
2020/12/30 00:59:06;;;;;;;;;36.50;36.50;;;;;9.46;74.49;101779.28;4433427;32;12357;-74
2020/12/30 01:02:02;;;;;;;;;23.00;22.25;;;;;9.46;74.49;101782.84;4418297;32;12358;-74
2020/12/30 01:04:57;;;;;;;;;38.00;30.50;;;;;9.47;74.40;101786.44;4418351;32;12444;-74
2020/12/30 01:07:39;;;;;;;;;33.25;32.00;;;;;9.44;74.46;101784.28;4418809;32;12339;-74
2020/12/30 01:10:08;;;;;;;;;38.50;35.25;;;;;9.43;74.40;101783.44;4434798;32;12435;-73
2020/12/30 01:12:50;;;;;;;;;39.00;38.00;;;;;9.48;74.37;101786.13;4434830;32;12496;-73
2020/12/30 01:15:32;;;;;;;;;41.25;36.50;;;;;9.43;74.54;101796.41;4418997;32;12344;-73
2020/12/30 01:17:59;;;;;;;;;41.00;37.25;;;;;9.52;74.23;101802.13;4445945;32;13000;-73
2020/12/30 01:20:41;;;;;;;;;38.25;37.00;;;;;9.44;74.36;101789.78;4424206;32;12963;-73
2020/12/30 01:23:11;;;;;;;;;35.50;31.75;;;;;9.37;74.50;101784.62;4433610;32;13146;-73
2020/12/30 01:25:40;;;;;;;;;36.50;35.75;;;;;9.39;74.37;101790.66;4434294;32;12430;-73
2020/12/30 01:28:29;;;;;;;;;25.00;24.00;;;;;9.44;73.98;101787.03;4432505;32;12309;-73
2020/12/30 01:30:57;;;;;;;;;35.25;32.75;;;;;9.23;73.57;101789.22;4433844;32;12309;-74
2020/12/30 01:33:52;;;;;;;;;28.50;28.50;;;;;9.09;73.92;101791.06;4435369;32;12389;-74
2020/12/30 01:36:53;;;;;;;;;29.50;27.50;;;;;9.15;73.88;101796.22;4432373;32;12350;-73
2020/12/30 01:39:48;;;;;;;;;32.50;31.25;;;;;9.17;73.60;101805.03;4432931;32;12361;-73
2020/12/30 01:42:15;;;;;;;;;35.75;34.75;;;;;9.01;73.98;101788.94;4433597;32;12371;-73
2020/12/30 01:45:12;;;;;;;;;37.50;32.50;;;;;8.94;74.08;101797.56;4433681;32;12394;-73
2020/12/30 01:48:15;;;;;;;;;29.25;29.25;;;;;8.90;74.39;101791.00;4433166;32;12418;-73
2020/12/30 01:51:10;;;;;;;;;28.50;27.50;;;;;8.88;74.29;101776.66;4432965;32;12378;-73
2020/12/30 01:54:12;;;;;;;;;25.50;25.50;;;;;8.82;74.58;101784.19;4433217;32;12354;-73
2020/12/30 01:56:40;;;;;;;;;38.00;35.25;;;;;8.88;74.40;101784.94;4433888;32;12390;-74
2020/12/30 01:59:14;;;;;;;;;36.75;34.00;;;;;8.89;74.48;101784.66;4434967;32;13029;-74
2020/12/30 02:02:13;;;;;;;;;37.50;33.75;;;;;8.97;74.54;101782.34;4418201;32;12479;-72
2020/12/30 02:05:09;;;;;;;;;36.50;35.25;;;;;9.07;74.36;101787.78;4416267;32;12342;-74
2020/12/30 02:08:05;;;;;;;;;26.50;25.50;;;;;9.20;74.25;101787.03;4417672;32;12541;-73
2020/12/30 02:10:32;;;;;;;;;31.75;31.75;;;;;9.25;74.11;101781.47;4418861;32;12412;-74
2020/12/30 02:13:00;;;;;;;;;26.25;26.25;;;;;9.35;73.87;101783.25;4419298;32;12375;-74
2020/12/30 02:16:00;;;;;;;;;30.75;30.75;;;;;9.31;73.90;101780.28;4417303;32;12351;-74
2020/12/30 02:18:57;;;;;;;;;33.00;32.75;;;;;9.37;73.85;101790.16;4419172;32;12351;-75
2020/12/30 02:21:58;;;;;;;;;35.00;35.00;;;;;9.35;73.84;101784.09;4417168;32;13037;-74
2020/12/30 02:24:48;;;;;;;;;36.00;35.25;;;;;9.36;73.84;101793.22;4418210;32;12376;-74
2020/12/30 02:27:43;;;;;;;;;32.75;32.25;;;;;9.36;73.52;101794.03;4417495;32;12405;-74
2020/12/30 02:30:39;;;;;;;;;42.00;36.75;;;;;9.09;73.75;101797.41;4429384;32;12335;-73
2020/12/30 02:33:35;;;;;;;;;31.75;31.75;;;;;9.03;73.78;101797.75;4433794;32;12349;-73
2020/12/30 02:36:30;;;;;;;;;38.25;37.50;;;;;8.91;73.63;101789.87;4433320;32;13096;-74
2020/12/30 02:39:28;;;;;;;;;30.00;29.50;;;;;8.77;74.14;101788.94;4433124;32;12356;-74
2020/12/30 02:42:15;;;;;;;;;36.50;36.50;;;;;8.93;74.05;101790.41;4433748;32;12370;-74
2020/12/30 02:45:11;;;;;;;;;41.25;38.50;;;;;9.05;73.77;101779.78;4433019;32;12357;-74
2020/12/30 02:48:07;;;;;;;;;34.00;34.00;;;;;9.13;73.68;101783.84;4432215;32;12454;-74
2020/12/30 02:51:02;;;;;;;;;35.75;33.75;;;;;9.19;73.48;101782.63;4431330;32;12362;-73
2020/12/30 02:53:58;;;;;;;;;32.50;32.50;;;;;9.19;73.69;101786.22;4432544;32;13047;-75
2020/12/30 02:56:54;;;;;;;;;33.50;31.00;;;;;9.27;73.24;101783.94;4432514;32;12366;-74
2020/12/30 02:59:25;;;;;;;;;34.00;32.50;;;;;9.23;73.31;101778.19;4433587;32;12395;-74
2020/12/30 03:02:25;;;;;;;;;40.00;37.50;;;;;9.21;73.42;101787.88;4421815;32;12400;-74
2020/12/30 03:05:20;;;;;;;;;38.75;38.00;;;;;9.23;73.30;101794.75;4434673;32;12381;-74
2020/12/30 03:08:17;;;;;;;;;36.00;35.00;;;;;9.24;73.19;101787.28;4435448;32;13063;-74
2020/12/30 03:11:12;;;;;;;;;36.00;35.25;;;;;9.26;73.17;101782.28;4435545;32;12456;-75
2020/12/30 03:13:53;;;;;;;;;47.75;40.50;;;;;9.22;73.07;101797.81;4437274;32;13057;-75
2020/12/30 03:16:49;;;;;;;;;48.00;42.50;;;;;9.35;72.66;101797.06;4435544;32;12480;-74
2020/12/30 03:19:16;;;;;;;;;46.00;41.75;;;;;9.36;72.39;101799.56;4435740;32;12367;-74
2020/12/30 03:21:45;;;;;;;;;35.00;35.00;;;;;9.33;72.63;101791.03;4434928;32;12345;-74
2020/12/30 03:24:41;;;;;;;;;53.75;47.00;;;;;9.38;72.34;101791.78;4435285;32;12463;-73
2020/12/30 03:27:08;;;;;;;;;56.00;47.50;;;;;9.35;72.21;101800.66;4434787;32;13031;-74
2020/12/30 03:30:05;;;;;;;;;47.50;41.50;;;;;9.38;72.25;101802.03;4431642;32;12376;-74
2020/12/30 03:33:01;;;;;;;;;46.00;41.00;;;;;9.45;71.88;101808.00;4449979;32;12353;-74
2020/12/30 03:35:58;;;;;;;;;38.00;37.00;;;;;9.43;71.87;101804.69;4450080;32;12442;-74
2020/12/30 03:38:25;;;;;;;;;39.00;36.50;;;;;9.48;71.77;101812.91;4442216;32;12479;-73
2020/12/30 03:41:21;;;;;;;;;31.50;31.00;;;;;9.41;71.92;101816.03;4435050;32;12393;-74
2020/12/30 03:43:56;;;;;;;;;33.25;30.50;;;;;9.38;71.85;101802.84;4436535;32;12370;-74
2020/12/30 03:46:28;;;;;;;;;40.00;38.75;;;;;9.41;71.86;101806.94;4434542;32;12428;-74
2020/12/30 03:49:23;;;;;;;;;31.75;28.75;;;;;9.31;72.02;101816.19;4430290;32;12408;-73
2020/12/30 03:52:19;;;;;;;;;33.00;33.00;;;;;9.41;71.83;101812.47;4419364;32;12394;-73
2020/12/30 03:55:15;;;;;;;;;35.00;34.25;;;;;9.47;71.56;101811.28;4423678;32;12346;-73
2020/12/30 03:58:10;;;;;;;;;36.25;36.00;;;;;9.44;71.41;101807.19;4421610;32;13006;-73
2020/12/30 04:01:06;;;;;;;;;30.50;26.50;;;;;9.40;71.55;101805.31;4420880;32;12370;-74
2020/12/30 04:04:02;;;;;;;;;30.00;28.25;;;;;9.36;71.52;101827.16;4419539;32;13005;-74
2020/12/30 04:06:31;;;;;;;;;28.75;27.75;;;;;9.42;71.29;101825.97;4419854;32;12338;-74
2020/12/30 04:09:28;;;;;;;;;30.50;30.50;;;;;9.51;71.09;101822.53;4419656;32;12426;-74
2020/12/30 04:12:24;;;;;;;;;27.25;26.50;;;;;9.40;71.23;101819.09;4424253;32;12334;-74
2020/12/30 04:15:20;;;;;;;;;36.00;32.50;;;;;9.41;71.16;101824.31;4431573;32;12334;-74
2020/12/30 04:17:57;;;;;;;;;31.00;31.00;;;;;9.43;71.02;101829.53;4434652;32;12538;-74
2020/12/30 04:20:26;;;;;;;;;31.00;31.00;;;;;9.33;71.25;101813.94;4435222;32;12319;-78
2020/12/30 04:23:25;;;;;;;;;36.75;36.75;;;;;9.32;71.30;101819.75;4434982;32;12358;-78
2020/12/30 04:26:21;;;;;;;;;48.50;44.00;;;;;9.33;71.24;101816.69;4417979;32;12359;-77
2020/12/30 04:29:17;;;;;;;;;49.75;42.75;;;;;9.32;71.14;101817.00;4419272;32;12405;-77
2020/12/30 04:32:12;;;;;;;;;45.50;41.50;;;;;9.31;71.24;101827.22;4428962;32;12421;-77
2020/12/30 04:34:48;;;;;;;;;34.00;30.75;;;;;9.24;71.22;101826.75;4434245;32;12393;-78
2020/12/30 04:37:44;;;;;;;;;26.00;26.00;;;;;9.29;71.13;101835.00;4433969;32;12339;-76
2020/12/30 04:40:40;;;;;;;;;24.50;24.50;;;;;9.32;70.91;101831.62;4432261;32;13063;-77
2020/12/30 04:43:42;;;;;;;;;33.75;31.00;;;;;9.38;70.57;101835.97;4430707;32;12449;-76
2020/12/30 04:46:13;;;;;;;;;29.00;27.25;;;;;9.42;70.43;101830.66;4435336;32;12413;-78
2020/12/30 04:49:10;;;;;;;;;34.25;33.75;;;;;9.31;70.68;101824.47;4434177;32;12431;-77
2020/12/30 04:52:06;;;;;;;;;30.75;30.75;;;;;9.36;70.60;101831.88;4433959;32;12366;-78
2020/12/30 04:54:34;;;;;;;;;35.25;33.75;;;;;9.43;70.20;101829.53;4434908;32;12486;-77
2020/12/30 04:57:17;;;;;;;;;34.50;34.50;;;;;9.30;70.38;101824.75;4435541;32;12350;-78
2020/12/30 05:00:05;;;;;;;;;35.00;33.75;;;;;9.32;70.34;101831.62;4434576;32;12428;-77
2020/12/30 05:02:36;;;;;;;;;40.25;37.25;;;;;9.34;70.15;101836.84;4433248;32;13017;-77
2020/12/30 05:05:20;;;;;;;;;38.50;34.50;;;;;9.30;70.42;101842.16;4413587;32;12478;-78
2020/12/30 05:08:16;;;;;;;;;43.25;40.50;;;;;9.21;70.84;101838.41;4434189;32;13004;-78
2020/12/30 05:11:12;;;;;;;;;54.50;47.00;;;;;9.22;70.66;101840.03;4434711;32;12355;-77
2020/12/30 05:13:39;;;;;;;;;52.75;45.75;;;;;9.27;70.59;101842.72;4435008;32;12327;-77
2020/12/30 05:16:07;;;;;;;;;51.25;44.75;;;;;9.32;70.75;101847.37;4434728;32;12367;-76
2020/12/30 05:18:39;;;;;;;;;51.50;44.25;;;;;9.41;70.19;101846.41;4435038;32;12392;-77
2020/12/30 05:21:07;;;;;;;;;39.50;36.50;;;;;9.39;70.04;101851.41;4435144;32;12389;-77
2020/12/30 05:24:04;;;;;;;;;37.25;36.00;;;;;9.50;69.73;101865.09;4432916;32;13014;-77
2020/12/30 05:26:32;;;;;;;;;35.25;35.25;;;;;9.31;70.25;101865.88;4432784;32;12304;-76
2020/12/30 05:29:28;;;;;;;;;36.50;36.50;;;;;9.31;70.05;101865.88;4431632;32;13088;-77
2020/12/30 05:32:25;;;;;;;;;35.75;35.50;;;;;9.40;70.05;101857.75;4433433;32;12401;-77
2020/12/30 05:35:21;;;;;;;;;44.50;40.50;;;;;9.39;69.88;101865.22;4433620;32;12346;-77
2020/12/30 05:38:27;;;;;;;;;44.25;41.25;;;;;9.31;69.93;101868.63;4433901;32;12376;-77
2020/12/30 05:41:22;;;;;;;;;40.75;37.50;;;;;9.53;69.50;101864.53;4432257;32;12356;-77
2020/12/30 05:44:19;;;;;;;;;46.50;41.75;;;;;9.48;69.37;101868.97;4433220;32;12530;-77
2020/12/30 05:47:20;;;;;;;;;36.50;36.50;;;;;9.45;69.63;101868.75;4431375;32;12355;-77
2020/12/30 05:50:25;;;;;;;;;53.50;46.50;;;;;9.45;69.68;101866.81;4433328;32;12390;-77
2020/12/30 05:53:14;;;;;;;;;49.00;42.75;;;;;9.42;69.56;101878.44;4434823;32;12383;-76
2020/12/30 05:56:10;;;;;;;;;36.25;36.25;;;;;9.52;69.30;101883.03;4434035;32;12460;-76
2020/12/30 05:59:06;;;;;;;;;45.75;41.75;;;;;9.46;69.47;101881.44;4432968;32;12457;-77
2020/12/30 06:02:02;;;;;;;;;53.50;45.00;;;;;9.37;69.90;101874.94;4433142;32;11761;-77
2020/12/30 06:04:30;;;;;;;;;37.25;36.25;;;;;9.43;69.88;101882.88;4432084;32;12347;-77
2020/12/30 06:07:13;;;;;;;;;29.25;28.75;;;;;9.50;69.41;101887.19;4421006;32;12357;-76
2020/12/30 06:09:49;;;;;;;;;28.00;27.50;;;;;9.53;69.49;101886.63;4433994;32;12380;-77
2020/12/30 06:12:47;;;;;;;;;30.25;30.25;;;;;9.57;69.29;101882.94;4422102;32;12355;-77
2020/12/30 06:15:26;;;;;;;;;30.75;30.75;;;;;9.66;69.19;101891.41;4432793;32;12372;-77
2020/12/30 06:18:23;;;;;;;;;24.25;24.25;;;;;9.58;69.48;101892.88;4432232;32;12385;-76
2020/12/30 06:21:20;;;;;;;;;27.00;26.50;;;;;9.62;69.43;101888.41;4433523;32;13056;-75
2020/12/30 06:24:16;;;;;;;;;27.75;27.75;;;;;9.65;69.19;101896.09;4411399;32;12275;-76
2020/12/30 06:27:18;;;;;;;;;20.25;18.50;;;;;9.65;69.20;101903.56;4431744;32;12387;-77
2020/12/30 06:29:46;;;;;;;;;27.25;26.50;;;;;9.66;69.15;101902.44;4434677;32;12277;-76
2020/12/30 06:32:42;;;;;;;;;19.75;19.75;;;;;9.70;69.08;101896.06;4431354;32;12359;-75
2020/12/30 06:35:40;;;;;;;;;29.75;29.75;;;;;9.75;68.98;101907.03;4416177;32;12421;-76
2020/12/30 06:38:18;;;;;;;;;28.75;28.75;;;;;9.80;68.73;101905.31;4421234;32;12258;-74
2020/12/30 06:41:13;;;;;;;;;31.75;30.75;;;;;9.72;68.59;101910.38;4435637;32;12332;-76
2020/12/30 06:44:09;;;;;;;;;31.75;30.25;;;;;9.84;68.76;101907.19;4435090;32;12354;-76
2020/12/30 06:47:07;;;;;;;;;29.75;29.75;;;;;9.93;68.48;101899.88;4433834;32;12346;-75
2020/12/30 06:49:41;;;;;;;;;24.25;24.25;;;;;9.75;68.92;101882.19;4421478;32;12366;-76
2020/12/30 06:52:28;;;;;;;;;33.25;32.75;;;;;9.81;68.75;101902.25;4422166;32;12330;-76
2020/12/30 06:55:43;;;;;;;;;31.25;31.25;;;;;9.82;68.83;101903.09;4420434;32;12430;-76
2020/12/30 06:58:50;;;;;;;;;33.75;30.50;;;;;9.87;68.64;101903.84;4419451;32;12452;-76
2020/12/30 07:01:53;;;;;;;;;29.00;28.00;;;;;9.96;68.37;101910.34;4418290;32;12373;-77
2020/12/30 07:05:00;;;;;;;;;35.25;35.00;;;;;9.91;68.71;101901.31;4419995;32;12343;-76
2020/12/30 07:07:27;;;;;;;;;30.25;29.25;;;;;9.98;68.68;101899.00;4421006;32;12392;-77
2020/12/30 07:10:23;;;;;;;;;33.75;33.25;;;;;9.94;68.86;101898.78;4424719;32;12395;-76
2020/12/30 07:13:01;;;;;;;;;32.50;32.25;;;;;9.98;68.90;101894.31;4430471;32;12389;-76
2020/12/30 07:16:19;;;;;;;;;28.25;27.75;;;;;10.06;68.63;101905.81;4431280;32;12311;-76
2020/12/30 07:18:48;;;;;;;;;34.00;32.50;;;;;10.07;68.30;101891.69;4434803;32;12353;-75
2020/12/30 07:21:19;;;;;;;;;35.25;34.00;;;;;10.16;68.16;101905.66;4437220;32;12269;-76
2020/12/30 07:24:23;;;;;;;;;37.25;36.50;;;;;10.20;67.90;101896.47;4435541;32;12296;-77
2020/12/30 07:27:20;;;;;;;;;33.75;33.50;;;;;10.17;68.09;101904.53;4434516;32;12343;-76
2020/12/30 07:29:49;;;;;;;;;27.00;27.00;;;;;10.20;67.90;101906.72;4428665;32;12319;-76
2020/12/30 07:32:47;;;;;;;;;35.25;33.50;;;;;10.20;67.99;101910.31;4419690;32;12511;-76
2020/12/30 07:35:21;;;;;;;;;28.25;28.25;;;;;10.11;68.44;101912.06;4420916;32;12293;-76
2020/12/30 07:37:50;;;;;;;;;33.50;29.50;;;;;10.11;67.97;101914.03;4419799;32;12347;-75
2020/12/30 07:41:01;;;;;;;;;25.25;25.25;;;;;10.21;67.26;101908.37;4419737;32;12363;-76
2020/12/30 07:44:04;;;;;;;;;30.50;30.50;;;;;9.69;68.38;101918.44;4419697;32;12279;-77
2020/12/30 07:46:31;;;;;;;;;27.25;26.50;;;;;9.51;68.56;101916.44;4435314;32;12960;-77
2020/12/30 07:49:29;;;;;;;;;27.25;25.25;;;;;9.67;68.65;101916.00;4431672;32;12977;-77
2020/12/30 07:52:24;;;;;;;;;23.25;22.25;;;;;9.67;68.81;101920.69;4434066;32;12296;-75
2020/12/30 07:55:26;;;;;;;;;23.50;21.50;;;;;9.70;68.48;101923.69;4434545;32;12282;-75
2020/12/30 07:58:23;;;;;;;;;24.50;23.50;;;;;9.81;68.08;101931.81;4435194;32;12313;-77
2020/12/30 08:01:00;;;;;;;;;19.50;19.00;;;;;9.56;68.61;101922.75;4435248;32;12258;-77
2020/12/30 08:03:41;;;;;;;;;20.00;19.00;;;;;9.53;68.82;101928.84;4434026;32;12358;-77
2020/12/30 08:06:45;;;;;;;;;22.00;21.75;;;;;9.51;68.79;101930.25;4435423;32;12300;-76
2020/12/30 08:09:34;;;;;;;;;21.75;21.50;;;;;9.40;69.07;101926.78;4434767;32;12344;-75
2020/12/30 08:12:30;;;;;;;;;21.25;20.25;;;;;9.48;69.01;101917.84;4435052;32;12413;-76
2020/12/30 08:15:01;;;;;;;;;21.25;21.25;;;;;9.53;68.96;101915.06;4435392;32;12268;-75
2020/12/30 08:17:31;;;;;;;;;24.25;24.25;;;;;9.60;68.77;101911.94;4433747;32;12289;-77
2020/12/30 08:20:36;;;;;;;;;29.75;29.75;;;;;9.51;69.01;101911.78;4433696;32;12299;-75
2020/12/30 08:23:04;;;;;;;;;24.50;24.50;;;;;9.56;69.30;101916.38;4434588;32;12316;-76
2020/12/30 08:26:03;;;;;;;;;30.50;29.25;;;;;9.67;69.10;101906.88;4428990;32;12289;-77
2020/12/30 08:28:59;;;;;;;;;28.75;28.75;;;;;9.72;68.87;101912.31;4431760;32;12259;-76
2020/12/30 08:31:52;;;;;;;;;24.25;23.75;;;;;9.78;68.84;101910.31;4424014;32;12328;-76
2020/12/30 08:34:41;;;;;;;;;24.00;24.00;;;;;9.98;68.54;101907.31;4429819;32;12291;-76
2020/12/30 08:37:15;;;;;;;;;38.00;36.50;;;;;10.06;68.42;101909.41;4422710;32;12327;-76
2020/12/30 08:40:09;;;;;;;;;34.75;34.75;;;;;10.14;68.17;101910.69;4430280;32;12430;-76
2020/12/30 08:43:19;;;;;;;;;38.00;37.25;;;;;10.27;68.15;101907.19;4411802;32;12361;-76
2020/12/30 08:45:48;;;;;;;;;35.75;35.75;;;;;10.46;67.77;101902.47;4430624;32;12428;-75
2020/12/30 08:48:47;;;;;;;;;38.50;37.75;;;;;10.43;67.70;101905.03;4420971;32;12284;-75
2020/12/30 08:51:46;;;;;;;;;39.50;38.00;;;;;10.49;67.85;101906.56;4423452;32;12344;-76
2020/12/30 08:54:45;;;;;;;;;42.00;39.00;;;;;10.57;67.40;101897.59;4419204;32;12376;-74
2020/12/30 08:57:44;;;;;;;;;41.25;38.75;;;;;10.78;67.23;101898.06;4420110;32;12347;-75
2020/12/30 09:00:33;;;;;;;;;36.00;35.25;;;;;10.88;67.18;101895.13;4419515;32;12991;-75
2020/12/30 09:03:29;;;;;;;;;30.00;30.00;;;;;11.00;66.81;101889.94;4416289;32;12402;-77
2020/12/30 09:06:27;;;;;;;;;32.50;32.50;;;;;10.97;66.27;101893.31;4415834;32;12506;-75
2020/12/30 09:09:22;;;;;;;;;28.25;28.25;;;;;11.04;65.93;101892.91;4415914;32;12289;-76
2020/12/30 09:12:24;;;;;;;;;34.75;33.25;;;;;11.16;65.90;101889.66;4417414;32;12304;-75
2020/12/30 09:15:32;;;;;;;;;33.25;30.25;;;;;11.27;65.94;101886.41;4418637;32;12336;-75
2020/12/30 09:18:28;;;;;;;;;36.25;35.75;;;;;11.39;65.07;101878.38;4421171;32;12489;-76
2020/12/30 09:21:27;;;;;;;;;32.75;32.75;;;;;11.62;64.46;101876.53;4420034;32;12330;-76
2020/12/30 09:24:23;;;;;;;;;32.50;31.50;;;;;11.81;64.37;101879.22;4419090;32;13015;-76
2020/12/30 09:26:53;;;;;;;;;24.00;23.25;;;;;11.90;63.83;101873.75;4423036;32;11840;-76
2020/12/30 09:29:21;;;;;;;;;32.00;31.00;;;;;11.94;63.29;101881.13;4419081;32;11597;-75
2020/12/30 09:32:22;;;;;;;;;28.00;27.25;;;;;12.00;63.07;101883.78;4414673;32;11916;-76
2020/12/30 09:35:07;;;;;;;;;25.50;25.50;;;;;11.89;63.21;101895.13;4413143;32;11713;-76
2020/12/30 09:37:59;;;;;;;;;24.75;24.75;;;;;11.85;63.40;101893.28;4423316;32;11858;-77
2020/12/30 09:40:55;;;;;;;;;21.00;21.00;;;;;11.86;63.00;101890.19;4414786;32;11501;-76
2020/12/30 09:43:24;;;;;;;;;22.50;22.50;;;;;12.01;62.89;101889.03;4412309;32;11536;-75
2020/12/30 09:46:25;;;;;;;;;20.25;20.25;;;;;11.73;63.37;101890.16;4403458;32;11438;-76
2020/12/30 09:49:22;;;;;;;;;21.25;21.25;;;;;11.84;63.06;101888.88;4403227;32;11426;-77
2020/12/30 09:52:18;;;;;;;;;21.50;21.50;;;;;11.92;62.55;101891.72;4423875;32;11339;-75
2020/12/30 09:55:14;;;;;;;;;22.00;22.00;;;;;11.89;62.52;101889.56;4418871;32;11318;-75
2020/12/30 09:58:09;;;;;;;;;20.25;20.25;;;;;11.95;62.74;101877.22;4423530;32;11443;-76
2020/12/30 10:01:05;;;;;;;;;21.00;21.00;;;;;11.87;62.87;101883.50;4420640;32;11670;-76
2020/12/30 10:03:36;;;;;;;;;22.75;22.75;;;;;11.70;63.14;101883.28;4419224;32;11599;-75
2020/12/30 10:06:32;;;;;;;;;26.00;25.25;;;;;11.86;62.76;101881.88;4419655;32;12382;-74
2020/12/30 10:09:28;;;;;;;;;20.50;20.50;;;;;11.89;62.73;101886.81;4419019;32;11428;-74
2020/12/30 10:12:25;;;;;;;;;24.25;23.50;;;;;11.84;62.37;101870.28;4425093;32;11654;-75
2020/12/30 10:14:53;;;;;;;;;22.50;22.00;;;;;11.68;62.99;101875.28;4420450;32;11632;-76
2020/12/30 10:17:21;;;;;;;;;25.50;24.50;;;;;11.70;62.87;101870.25;4423665;32;11765;-75
2020/12/30 10:20:05;;;;;;;;;27.50;27.00;;;;;11.74;63.09;101866.88;4417548;32;11650;-76
2020/12/30 10:23:00;;;;;;;;;24.75;24.75;;;;;11.67;63.18;101870.06;4427085;32;12038;-77
2020/12/30 10:25:43;;;;;;;;;27.00;26.75;;;;;11.64;62.88;101868.72;4423657;32;11749;-76
2020/12/30 10:28:10;;;;;;;;;27.00;27.00;;;;;11.61;62.98;101865.75;4415102;32;11753;-76
2020/12/30 10:31:11;;;;;;;;;21.75;21.75;;;;;11.45;63.67;101861.66;4415159;32;11888;-76
2020/12/30 10:34:13;;;;;;;;;26.75;26.00;;;;;11.64;63.34;101862.34;4420939;32;11866;-76
2020/12/30 10:36:58;;;;;;;;;30.25;30.00;;;;;11.63;63.24;101855.19;4419787;32;11941;-76
2020/12/30 10:39:49;;;;;;;;;29.50;28.00;;;;;11.62;63.44;101848.81;4417122;32;12510;-77
2020/12/30 10:42:16;;;;;;;;;30.00;29.50;;;;;11.61;63.34;101841.62;4428686;32;12286;-76
2020/12/30 10:45:12;;;;;;;;;26.50;26.00;;;;;11.72;63.15;101844.19;4418495;32;11953;-76
2020/12/30 10:48:09;;;;;;;;;50.75;43.50;;;;;11.82;63.12;101838.47;4504620;27;12181;-78
2020/12/30 10:51:04;;;;;;;;;36.00;32.00;;;;;11.70;63.27;101838.94;4361807;32;12305;-78
2020/12/30 10:54:00;;;;;;;;;35.25;35.25;;;;;11.78;62.99;101846.53;4373269;32;11920;-79
2020/12/30 10:56:56;;;;;;;;;28.75;28.75;;;;;11.78;63.07;101840.19;4352895;33;12309;-79
2020/12/30 10:59:53;;;;;;;;;31.75;30.75;;;;;11.78;63.40;101845.72;4337086;32;11935;-79
2020/12/30 11:02:49;;;;;;;;;27.75;27.75;;;;;11.56;63.69;101844.50;4344410;33;11989;-79
2020/12/30 11:05:44;;;;;;;;;31.00;31.00;;;;;11.57;63.52;101845.31;4342940;33;11882;-79
2020/12/30 11:08:14;;;;;;;;;38.75;36.75;;;;;11.65;63.33;101850.13;4353887;33;12317;-78
2020/12/30 11:11:11;;;;;;;;;38.50;37.25;;;;;11.46;63.63;101843.91;4343123;33;12376;-80
2020/12/30 11:14:07;;;;;;;;;38.00;36.50;;;;;11.31;63.99;101828.44;4353843;33;12333;-80
2020/12/30 11:16:49;;;;;;;;;27.75;26.75;;;;;11.37;63.63;101827.19;4345677;33;12458;-79
2020/12/30 11:19:19;;;;;;;;;25.50;24.75;;;;;11.34;63.62;101822.25;4331791;33;12305;-79
2020/12/30 11:22:15;;;;;;;;;30.25;29.75;;;;;11.19;64.14;101819.81;4360087;32;13027;-78
2020/12/30 11:25:10;;;;;;;;;35.50;35.50;;;;;11.25;64.14;101827.69;4361005;32;12309;-80
2020/12/30 11:28:07;;;;;;;;;31.00;28.00;;;;;11.18;64.48;101827.28;4349867;33;12294;-78
2020/12/30 11:30:36;;;;;;;;;29.50;29.50;;;;;11.29;64.24;101819.63;4352718;33;12322;-79
2020/12/30 11:33:37;;;;;;;;;26.25;26.00;;;;;10.99;65.03;101818.28;4365368;32;12368;-80
2020/12/30 11:36:33;;;;;;;;;30.00;30.00;;;;;11.12;64.81;101818.28;4363712;32;12316;-79
2020/12/30 11:39:29;;;;;;;;;30.75;30.50;;;;;11.16;64.66;101815.72;4357425;32;12328;-80
2020/12/30 11:42:25;;;;;;;;;38.50;36.50;;;;;11.07;64.99;101814.78;4367009;33;12371;-79
2020/12/30 11:45:21;;;;;;;;;68.75;56.25;;;;;11.18;64.95;101810.69;4368053;32;12320;-80
2020/12/30 11:48:18;;;;;;;;;40.50;38.75;;;;;11.38;64.86;101810.25;4355650;33;12373;-80
2020/12/30 11:51:14;;;;;;;;;47.50;40.75;;;;;11.51;64.70;101814.16;4351108;33;12428;-79
2020/12/30 11:54:09;;;;;;;;;29.50;29.25;;;;;11.61;64.76;101808.38;4361604;32;12333;-79
2020/12/30 11:57:05;;;;;;;;;37.75;36.00;;;;;11.43;64.72;101812.13;4360003;32;12318;-80
2020/12/30 12:00:05;;;;;;;;;36.50;36.00;;;;;11.38;64.96;101813.03;4358642;33;12332;-80
2020/12/30 12:03:01;;;;;;;;;37.00;36.00;;;;;11.17;64.54;101806.28;4361288;32;12418;-80
2020/12/30 12:05:58;;;;;;;;;32.50;32.50;;;;;11.03;64.68;101808.22;4361764;32;12965;-80
2020/12/30 12:08:54;;;;;;;;;41.50;39.50;;;;;10.81;65.24;101806.97;4350938;32;12323;-79
2020/12/30 12:11:50;;;;;;;;;44.25;38.25;;;;;10.90;65.15;101801.56;4351120;33;13003;-80
2020/12/30 12:14:47;;;;;;;;;36.75;36.25;;;;;10.97;65.19;101807.50;4350574;32;12385;-80
2020/12/30 12:17:35;;;;;;;;;50.25;40.00;;;;;11.19;65.11;101806.78;4349690;33;12302;-79
2020/12/30 12:20:31;;;;;;;;;64.50;53.25;;;;;11.25;65.38;101805.56;4360159;32;13121;-80
2020/12/30 12:22:58;;;;;;;;;46.00;41.00;;;;;11.36;65.17;101801.44;4336515;32;12374;-79
2020/12/30 12:25:55;;;;;;;;;37.25;36.00;;;;;11.45;64.96;101806.25;4360234;32;12344;-80
2020/12/30 12:28:52;;;;;;;;;43.75;39.75;;;;;11.55;64.59;101806.84;4351618;33;12387;-79
2020/12/30 12:31:21;;;;;;;;;38.75;36.00;;;;;11.50;64.70;101806.97;4361820;32;12327;-79
2020/12/30 12:33:57;;;;;;;;;37.75;36.00;;;;;11.60;64.46;101803.97;4336351;33;12277;-79
2020/12/30 12:36:54;;;;;;;;;38.25;36.00;;;;;11.69;64.40;101798.53;4349387;32;12375;-79
2020/12/30 12:39:52;;;;;;;;;46.25;40.50;;;;;11.58;64.59;101802.66;4349679;32;12423;-79
2020/12/30 12:42:48;;;;;;;;;39.75;36.00;;;;;11.47;64.59;101817.84;4360473;32;12317;-79
2020/12/30 12:45:43;;;;;;;;;39.75;36.75;;;;;11.30;65.30;101808.22;4357525;32;12994;-79
2020/12/30 12:48:39;;;;;;;;;39.75;37.75;;;;;11.47;64.98;101807.59;4357115;32;12363;-78
2020/12/30 12:51:37;;;;;;;;;42.75;38.50;;;;;11.60;64.60;101805.94;4352355;32;12412;-79
2020/12/30 12:54:34;;;;;;;;;57.00;49.00;;;;;11.60;64.62;101798.44;4350093;32;12366;-80
2020/12/30 12:57:29;;;;;;;;;41.00;38.75;;;;;11.73;64.26;101810.63;4348700;33;12388;-78